sensor_id;sensor_type;location;lat;lon;timestamp;P1;durP1;ratioP1;P2;durP2;ratioP2
6197;SDS011;3132;42.622;23.328;2022-10-13T00:00:23;12.03;;;11.03;;
6197;SDS011;3132;42.622;23.328;2022-10-13T00:02:49;13.20;;;12.17;;
6197;SDS011;3132;42.622;23.328;2022-10-13T00:05:14;13.27;;;12.00;;
6197;SDS011;3132;42.622;23.328;2022-10-13T00:07:39;12.60;;;11.70;;
6197;SDS011;3132;42.622;23.328;2022-10-13T00:10:05;13.37;;;12.17;;
6197;SDS011;3132;42.622;23.328;2022-10-13T00:12:37;12.13;;;11.23;;
6197;SDS011;3132;42.622;23.328;2022-10-13T00:15:05;12.83;;;11.73;;
6197;SDS011;3132;42.622;23.328;2022-10-13T00:17:31;13.23;;;11.87;;
6197;SDS011;3132;42.622;23.328;2022-10-13T00:19:57;12.57;;;11.50;;
6197;SDS011;3132;42.622;23.328;2022-10-13T00:22:22;12.13;;;11.23;;
6197;SDS011;3132;42.622;23.328;2022-10-13T00:24:51;13.13;;;12.03;;
6197;SDS011;3132;42.622;23.328;2022-10-13T00:27:17;12.67;;;11.77;;
6197;SDS011;3132;42.622;23.328;2022-10-13T00:29:43;14.70;;;13.50;;
6197;SDS011;3132;42.622;23.328;2022-10-13T00:32:09;14.00;;;12.90;;
6197;SDS011;3132;42.622;23.328;2022-10-13T00:34:35;14.17;;;12.77;;
6197;SDS011;3132;42.622;23.328;2022-10-13T00:37:01;14.37;;;13.27;;
6197;SDS011;3132;42.622;23.328;2022-10-13T00:39:27;13.73;;;12.73;;
6197;SDS011;3132;42.622;23.328;2022-10-13T00:41:52;14.27;;;12.87;;
6197;SDS011;3132;42.622;23.328;2022-10-13T00:47:21;14.37;;;13.17;;
6197;SDS011;3132;42.622;23.328;2022-10-13T00:49:48;14.43;;;13.27;;
6197;SDS011;3132;42.622;23.328;2022-10-13T00:52:14;13.80;;;12.53;;
6197;SDS011;3132;42.622;23.328;2022-10-13T00:54:42;14.03;;;12.93;;
6197;SDS011;3132;42.622;23.328;2022-10-13T00:57:08;14.67;;;13.40;;
6197;SDS011;3132;42.622;23.328;2022-10-13T00:59:34;14.83;;;13.43;;
6197;SDS011;3132;42.622;23.328;2022-10-13T01:02:01;14.27;;;13.17;;
6197;SDS011;3132;42.622;23.328;2022-10-13T01:04:32;14.13;;;12.97;;
6197;SDS011;3132;42.622;23.328;2022-10-13T01:07:01;14.93;;;13.77;;
6197;SDS011;3132;42.622;23.328;2022-10-13T01:09:28;14.63;;;13.33;;
6197;SDS011;3132;42.622;23.328;2022-10-13T01:17:49;14.77;;;13.37;;
6197;SDS011;3132;42.622;23.328;2022-10-13T01:26:11;14.63;;;13.30;;
6197;SDS011;3132;42.622;23.328;2022-10-13T01:32:06;14.17;;;13.17;;
6197;SDS011;3132;42.622;23.328;2022-10-13T01:34:46;14.03;;;12.70;;
6197;SDS011;3132;42.622;23.328;2022-10-13T01:42:34;13.27;;;12.20;;
6197;SDS011;3132;42.622;23.328;2022-10-13T01:45:04;13.37;;;12.10;;
6197;SDS011;3132;42.622;23.328;2022-10-13T01:47:32;12.93;;;11.73;;
6197;SDS011;3132;42.622;23.328;2022-10-13T01:49:59;13.60;;;12.50;;
6197;SDS011;3132;42.622;23.328;2022-10-13T01:52:27;12.20;;;11.30;;
6197;SDS011;3132;42.622;23.328;2022-10-13T01:55:03;12.07;;;11.00;;
6197;SDS011;3132;42.622;23.328;2022-10-13T01:57:37;11.27;;;10.30;;
6197;SDS011;3132;42.622;23.328;2022-10-13T02:00:13;11.77;;;10.97;;
6197;SDS011;3132;42.622;23.328;2022-10-13T02:05:36;13.07;;;12.17;;
6197;SDS011;3132;42.622;23.328;2022-10-13T02:08:41;12.67;;;11.60;;
6197;SDS011;3132;42.622;23.328;2022-10-13T02:11:19;12.63;;;11.70;;
6197;SDS011;3132;42.622;23.328;2022-10-13T02:13:49;13.47;;;12.37;;
6197;SDS011;3132;42.622;23.328;2022-10-13T02:16:22;12.93;;;11.63;;
6197;SDS011;3132;42.622;23.328;2022-10-13T02:18:49;11.57;;;10.87;;
6197;SDS011;3132;42.622;23.328;2022-10-13T02:21:15;11.60;;;10.80;;
6197;SDS011;3132;42.622;23.328;2022-10-13T02:23:42;12.23;;;11.33;;
6197;SDS011;3132;42.622;23.328;2022-10-13T02:26:08;11.33;;;10.43;;
6197;SDS011;3132;42.622;23.328;2022-10-13T02:28:37;12.30;;;11.50;;
6197;SDS011;3132;42.622;23.328;2022-10-13T02:31:04;11.50;;;10.70;;
6197;SDS011;3132;42.622;23.328;2022-10-13T02:33:31;13.40;;;12.40;;
6197;SDS011;3132;42.622;23.328;2022-10-13T02:35:57;12.87;;;11.97;;
6197;SDS011;3132;42.622;23.328;2022-10-13T02:38:22;12.43;;;11.43;;
6197;SDS011;3132;42.622;23.328;2022-10-13T02:40:48;12.40;;;11.50;;
6197;SDS011;3132;42.622;23.328;2022-10-13T02:43:13;12.07;;;11.13;;
6197;SDS011;3132;42.622;23.328;2022-10-13T02:45:38;13.23;;;11.90;;
6197;SDS011;3132;42.622;23.328;2022-10-13T02:48:04;11.97;;;11.03;;
6197;SDS011;3132;42.622;23.328;2022-10-13T02:50:29;12.77;;;11.73;;
6197;SDS011;3132;42.622;23.328;2022-10-13T02:52:55;12.93;;;11.83;;
6197;SDS011;3132;42.622;23.328;2022-10-13T02:55:21;12.73;;;11.80;;
6197;SDS011;3132;42.622;23.328;2022-10-13T02:57:46;13.07;;;12.17;;
6197;SDS011;3132;42.622;23.328;2022-10-13T03:00:12;13.67;;;12.30;;
6197;SDS011;3132;42.622;23.328;2022-10-13T03:02:38;13.13;;;11.93;;
6197;SDS011;3132;42.622;23.328;2022-10-13T03:05:03;14.53;;;13.10;;
6197;SDS011;3132;42.622;23.328;2022-10-13T03:07:29;13.67;;;12.50;;
6197;SDS011;3132;42.622;23.328;2022-10-13T03:09:54;14.30;;;13.07;;
6197;SDS011;3132;42.622;23.328;2022-10-13T03:12:20;14.53;;;13.10;;
6197;SDS011;3132;42.622;23.328;2022-10-13T03:14:45;14.97;;;13.67;;
6197;SDS011;3132;42.622;23.328;2022-10-13T03:17:11;17.07;;;13.33;;
6197;SDS011;3132;42.622;23.328;2022-10-13T03:19:36;14.47;;;13.07;;
6197;SDS011;3132;42.622;23.328;2022-10-13T03:22:01;16.07;;;14.37;;
6197;SDS011;3132;42.622;23.328;2022-10-13T03:24:27;17.00;;;13.43;;
6197;SDS011;3132;42.622;23.328;2022-10-13T03:26:52;14.07;;;12.77;;
6197;SDS011;3132;42.622;23.328;2022-10-13T03:29:18;14.17;;;12.87;;
6197;SDS011;3132;42.622;23.328;2022-10-13T03:31:44;16.07;;;13.40;;
6197;SDS011;3132;42.622;23.328;2022-10-13T03:34:10;14.33;;;13.03;;
6197;SDS011;3132;42.622;23.328;2022-10-13T03:36:36;15.60;;;14.20;;
6197;SDS011;3132;42.622;23.328;2022-10-13T03:39:02;15.20;;;13.90;;
6197;SDS011;3132;42.622;23.328;2022-10-13T03:41:27;15.10;;;13.23;;
6197;SDS011;3132;42.622;23.328;2022-10-13T03:43:53;16.27;;;14.53;;
6197;SDS011;3132;42.622;23.328;2022-10-13T03:46:18;20.10;;;15.97;;
6197;SDS011;3132;42.622;23.328;2022-10-13T03:48:45;15.60;;;13.97;;
6197;SDS011;3132;42.622;23.328;2022-10-13T03:51:20;16.13;;;14.40;;
6197;SDS011;3132;42.622;23.328;2022-10-13T03:53:47;16.13;;;14.57;;
6197;SDS011;3132;42.622;23.328;2022-10-13T03:56:14;19.30;;;16.20;;
6197;SDS011;3132;42.622;23.328;2022-10-13T03:58:44;17.93;;;15.97;;
6197;SDS011;3132;42.622;23.328;2022-10-13T04:01:10;16.70;;;15.00;;
6197;SDS011;3132;42.622;23.328;2022-10-13T04:03:37;17.80;;;16.03;;
6197;SDS011;3132;42.622;23.328;2022-10-13T04:06:04;17.10;;;15.50;;
6197;SDS011;3132;42.622;23.328;2022-10-13T04:08:31;19.90;;;15.57;;
6197;SDS011;3132;42.622;23.328;2022-10-13T04:11:01;19.03;;;17.23;;
6197;SDS011;3132;42.622;23.328;2022-10-13T04:13:29;25.30;;;19.10;;
6197;SDS011;3132;42.622;23.328;2022-10-13T04:15:55;20.30;;;18.33;;
6197;SDS011;3132;42.622;23.328;2022-10-13T04:18:20;19.57;;;17.57;;
6197;SDS011;3132;42.622;23.328;2022-10-13T04:20:45;18.47;;;16.50;;
6197;SDS011;3132;42.622;23.328;2022-10-13T04:23:11;19.60;;;17.53;;
6197;SDS011;3132;42.622;23.328;2022-10-13T04:25:37;19.77;;;17.53;;
6197;SDS011;3132;42.622;23.328;2022-10-13T04:28:03;19.33;;;17.37;;
6197;SDS011;3132;42.622;23.328;2022-10-13T04:30:29;19.10;;;17.10;;
6197;SDS011;3132;42.622;23.328;2022-10-13T04:32:57;21.07;;;17.77;;
6197;SDS011;3132;42.622;23.328;2022-10-13T04:35:22;26.57;;;18.70;;
6197;SDS011;3132;42.622;23.328;2022-10-13T04:37:48;23.23;;;17.57;;
6197;SDS011;3132;42.622;23.328;2022-10-13T04:40:13;18.20;;;16.30;;
6197;SDS011;3132;42.622;23.328;2022-10-13T04:42:39;22.67;;;17.27;;
6197;SDS011;3132;42.622;23.328;2022-10-13T04:45:04;19.23;;;17.03;;
6197;SDS011;3132;42.622;23.328;2022-10-13T04:47:30;17.07;;;15.27;;
6197;SDS011;3132;42.622;23.328;2022-10-13T04:49:56;22.63;;;16.47;;
6197;SDS011;3132;42.622;23.328;2022-10-13T04:52:21;18.60;;;16.60;;
6197;SDS011;3132;42.622;23.328;2022-10-13T04:54:46;19.33;;;17.37;;
6197;SDS011;3132;42.622;23.328;2022-10-13T04:57:12;20.33;;;17.87;;
6197;SDS011;3132;42.622;23.328;2022-10-13T04:59:37;20.47;;;17.30;;
6197;SDS011;3132;42.622;23.328;2022-10-13T05:02:03;21.73;;;18.17;;
6197;SDS011;3132;42.622;23.328;2022-10-13T05:04:28;21.83;;;16.20;;
6197;SDS011;3132;42.622;23.328;2022-10-13T05:06:53;19.83;;;16.67;;
6197;SDS011;3132;42.622;23.328;2022-10-13T05:09:19;19.17;;;17.23;;
6197;SDS011;3132;42.622;23.328;2022-10-13T05:11:46;22.57;;;18.67;;
6197;SDS011;3132;42.622;23.328;2022-10-13T05:14:11;21.27;;;17.20;;
6197;SDS011;3132;42.622;23.328;2022-10-13T05:16:37;23.60;;;18.23;;
6197;SDS011;3132;42.622;23.328;2022-10-13T05:19:02;23.83;;;18.70;;
6197;SDS011;3132;42.622;23.328;2022-10-13T05:21:28;29.90;;;21.07;;
6197;SDS011;3132;42.622;23.328;2022-10-13T05:23:54;27.10;;;19.77;;
6197;SDS011;3132;42.622;23.328;2022-10-13T05:26:24;25.67;;;20.00;;
6197;SDS011;3132;42.622;23.328;2022-10-13T05:28:53;29.23;;;20.17;;
6197;SDS011;3132;42.622;23.328;2022-10-13T05:31:23;29.70;;;22.00;;
6197;SDS011;3132;42.622;23.328;2022-10-13T05:33:50;33.83;;;21.90;;
6197;SDS011;3132;42.622;23.328;2022-10-13T05:36:26;34.90;;;22.73;;
6197;SDS011;3132;42.622;23.328;2022-10-13T05:38:57;33.37;;;20.80;;
6197;SDS011;3132;42.622;23.328;2022-10-13T05:41:24;32.83;;;23.50;;
6197;SDS011;3132;42.622;23.328;2022-10-13T05:43:52;38.67;;;22.27;;
6197;SDS011;3132;42.622;23.328;2022-10-13T05:46:21;31.50;;;22.17;;
6197;SDS011;3132;42.622;23.328;2022-10-13T05:48:47;26.83;;;20.73;;
6197;SDS011;3132;42.622;23.328;2022-10-13T05:51:13;31.80;;;22.10;;
6197;SDS011;3132;42.622;23.328;2022-10-13T05:53:51;31.20;;;21.13;;
6197;SDS011;3132;42.622;23.328;2022-10-13T05:56:20;25.53;;;20.47;;
6197;SDS011;3132;42.622;23.328;2022-10-13T05:58:50;28.10;;;19.60;;
6197;SDS011;3132;42.622;23.328;2022-10-13T06:01:19;24.10;;;20.57;;
6197;SDS011;3132;42.622;23.328;2022-10-13T06:03:48;24.83;;;21.13;;
6197;SDS011;3132;42.622;23.328;2022-10-13T06:06:18;24.27;;;20.37;;
6197;SDS011;3132;42.622;23.328;2022-10-13T06:08:43;24.20;;;20.77;;
6197;SDS011;3132;42.622;23.328;2022-10-13T06:11:09;22.40;;;18.70;;
6197;SDS011;3132;42.622;23.328;2022-10-13T06:13:34;23.33;;;19.27;;
6197;SDS011;3132;42.622;23.328;2022-10-13T06:16:00;24.90;;;19.67;;
6197;SDS011;3132;42.622;23.328;2022-10-13T06:18:26;28.27;;;20.33;;
6197;SDS011;3132;42.622;23.328;2022-10-13T06:20:51;23.87;;;20.03;;
6197;SDS011;3132;42.622;23.328;2022-10-13T06:23:17;23.70;;;19.87;;
6197;SDS011;3132;42.622;23.328;2022-10-13T06:25:46;27.73;;;22.00;;
6197;SDS011;3132;42.622;23.328;2022-10-13T06:28:12;29.43;;;22.03;;
6197;SDS011;3132;42.622;23.328;2022-10-13T06:30:37;26.00;;;20.70;;
6197;SDS011;3132;42.622;23.328;2022-10-13T06:33:03;26.43;;;21.07;;
6197;SDS011;3132;42.622;23.328;2022-10-13T06:35:28;31.20;;;21.93;;
6197;SDS011;3132;42.622;23.328;2022-10-13T06:37:54;30.83;;;20.50;;
6197;SDS011;3132;42.622;23.328;2022-10-13T06:40:21;25.10;;;19.77;;
6197;SDS011;3132;42.622;23.328;2022-10-13T06:42:50;31.03;;;21.97;;
6197;SDS011;3132;42.622;23.328;2022-10-13T06:45:15;31.10;;;22.53;;
6197;SDS011;3132;42.622;23.328;2022-10-13T06:47:41;33.43;;;22.60;;
6197;SDS011;3132;42.622;23.328;2022-10-13T06:50:06;27.50;;;21.47;;
6197;SDS011;3132;42.622;23.328;2022-10-13T06:52:32;26.60;;;20.00;;
6197;SDS011;3132;42.622;23.328;2022-10-13T06:54:58;23.60;;;20.30;;
6197;SDS011;3132;42.622;23.328;2022-10-13T06:57:23;24.33;;;19.23;;
6197;SDS011;3132;42.622;23.328;2022-10-13T06:59:48;27.00;;;20.40;;
6197;SDS011;3132;42.622;23.328;2022-10-13T07:02:14;27.90;;;22.03;;
6197;SDS011;3132;42.622;23.328;2022-10-13T07:04:39;25.20;;;19.40;;
6197;SDS011;3132;42.622;23.328;2022-10-13T07:07:04;28.67;;;21.43;;
6197;SDS011;3132;42.622;23.328;2022-10-13T07:09:30;29.07;;;21.13;;
6197;SDS011;3132;42.622;23.328;2022-10-13T07:11:55;29.20;;;21.73;;
6197;SDS011;3132;42.622;23.328;2022-10-13T07:14:21;24.63;;;19.47;;
6197;SDS011;3132;42.622;23.328;2022-10-13T07:16:46;29.63;;;22.63;;
6197;SDS011;3132;42.622;23.328;2022-10-13T07:19:12;31.60;;;22.50;;
6197;SDS011;3132;42.622;23.328;2022-10-13T07:21:37;26.67;;;20.53;;
6197;SDS011;3132;42.622;23.328;2022-10-13T07:24:03;30.37;;;22.80;;
6197;SDS011;3132;42.622;23.328;2022-10-13T07:26:28;33.53;;;21.50;;
6197;SDS011;3132;42.622;23.328;2022-10-13T07:28:54;29.53;;;21.57;;
6197;SDS011;3132;42.622;23.328;2022-10-13T07:31:19;32.60;;;23.00;;
6197;SDS011;3132;42.622;23.328;2022-10-13T07:33:46;32.37;;;21.53;;
6197;SDS011;3132;42.622;23.328;2022-10-13T07:36:13;28.20;;;21.23;;
6197;SDS011;3132;42.622;23.328;2022-10-13T07:38:38;26.57;;;21.47;;
6197;SDS011;3132;42.622;23.328;2022-10-13T07:41:05;33.37;;;23.67;;
6197;SDS011;3132;42.622;23.328;2022-10-13T07:43:33;29.27;;;21.63;;
6197;SDS011;3132;42.622;23.328;2022-10-13T07:45:59;27.83;;;22.57;;
6197;SDS011;3132;42.622;23.328;2022-10-13T07:48:26;30.40;;;22.10;;
6197;SDS011;3132;42.622;23.328;2022-10-13T07:50:52;30.70;;;22.30;;
6197;SDS011;3132;42.622;23.328;2022-10-13T07:53:17;29.00;;;22.17;;
6197;SDS011;3132;42.622;23.328;2022-10-13T07:55:43;25.23;;;19.83;;
6197;SDS011;3132;42.622;23.328;2022-10-13T07:58:08;34.40;;;21.83;;
6197;SDS011;3132;42.622;23.328;2022-10-13T08:00:35;30.60;;;21.87;;
6197;SDS011;3132;42.622;23.328;2022-10-13T08:03:00;26.73;;;21.60;;
6197;SDS011;3132;42.622;23.328;2022-10-13T08:05:26;26.93;;;20.07;;
6197;SDS011;3132;42.622;23.328;2022-10-13T08:07:51;37.23;;;21.20;;
6197;SDS011;3132;42.622;23.328;2022-10-13T08:10:16;29.13;;;21.77;;
6197;SDS011;3132;42.622;23.328;2022-10-13T08:12:42;26.23;;;20.80;;
6197;SDS011;3132;42.622;23.328;2022-10-13T08:15:08;28.77;;;21.70;;
6197;SDS011;3132;42.622;23.328;2022-10-13T08:17:34;29.60;;;21.47;;
6197;SDS011;3132;42.622;23.328;2022-10-13T08:19:59;27.03;;;21.47;;
6197;SDS011;3132;42.622;23.328;2022-10-13T08:22:24;26.97;;;20.97;;
6197;SDS011;3132;42.622;23.328;2022-10-13T08:24:51;27.17;;;20.83;;
6197;SDS011;3132;42.622;23.328;2022-10-13T08:27:20;35.10;;;21.67;;
6197;SDS011;3132;42.622;23.328;2022-10-13T08:29:46;25.33;;;18.90;;
6197;SDS011;3132;42.622;23.328;2022-10-13T08:32:12;20.83;;;18.17;;
6197;SDS011;3132;42.622;23.328;2022-10-13T08:34:37;22.13;;;18.80;;
6197;SDS011;3132;42.622;23.328;2022-10-13T08:37:03;27.57;;;18.63;;
6197;SDS011;3132;42.622;23.328;2022-10-13T08:39:28;21.73;;;18.30;;
6197;SDS011;3132;42.622;23.328;2022-10-13T08:41:54;25.47;;;19.33;;
6197;SDS011;3132;42.622;23.328;2022-10-13T08:44:37;22.00;;;18.37;;
6197;SDS011;3132;42.622;23.328;2022-10-13T08:49:52;24.37;;;19.37;;
6197;SDS011;3132;42.622;23.328;2022-10-13T08:52:21;23.30;;;18.20;;
6197;SDS011;3132;42.622;23.328;2022-10-13T08:54:48;23.33;;;19.60;;
6197;SDS011;3132;42.622;23.328;2022-10-13T08:57:15;28.37;;;20.60;;
6197;SDS011;3132;42.622;23.328;2022-10-13T08:59:40;23.30;;;18.33;;
6197;SDS011;3132;42.622;23.328;2022-10-13T09:02:10;27.73;;;19.23;;
6197;SDS011;3132;42.622;23.328;2022-10-13T09:04:39;27.37;;;19.73;;
6197;SDS011;3132;42.622;23.328;2022-10-13T09:09:33;22.07;;;19.43;;
6197;SDS011;3132;42.622;23.328;2022-10-13T09:11:59;25.10;;;18.97;;
6197;SDS011;3132;42.622;23.328;2022-10-13T09:14:28;34.50;;;20.93;;
6197;SDS011;3132;42.622;23.328;2022-10-13T09:16:55;28.23;;;20.57;;
6197;SDS011;3132;42.622;23.328;2022-10-13T09:19:36;25.30;;;20.00;;
6197;SDS011;3132;42.622;23.328;2022-10-13T09:24:58;30.93;;;21.87;;
6197;SDS011;3132;42.622;23.328;2022-10-13T09:27:25;30.40;;;21.67;;
6197;SDS011;3132;42.622;23.328;2022-10-13T09:29:51;30.80;;;22.57;;
6197;SDS011;3132;42.622;23.328;2022-10-13T09:32:20;32.10;;;22.70;;
6197;SDS011;3132;42.622;23.328;2022-10-13T09:34:48;31.47;;;22.50;;
6197;SDS011;3132;42.622;23.328;2022-10-13T09:37:15;29.17;;;21.80;;
6197;SDS011;3132;42.622;23.328;2022-10-13T09:39:46;30.83;;;21.30;;
6197;SDS011;3132;42.622;23.328;2022-10-13T09:42:26;32.23;;;21.07;;
6197;SDS011;3132;42.622;23.328;2022-10-13T09:45:00;32.47;;;21.13;;
6197;SDS011;3132;42.622;23.328;2022-10-13T09:47:35;34.87;;;21.93;;
6197;SDS011;3132;42.622;23.328;2022-10-13T09:50:13;31.07;;;21.97;;
6197;SDS011;3132;42.622;23.328;2022-10-13T09:52:43;27.77;;;21.23;;
6197;SDS011;3132;42.622;23.328;2022-10-13T09:55:26;32.93;;;22.83;;
6197;SDS011;3132;42.622;23.328;2022-10-13T09:57:59;32.13;;;21.23;;
6197;SDS011;3132;42.622;23.328;2022-10-13T10:00:30;28.70;;;19.83;;
6197;SDS011;3132;42.622;23.328;2022-10-13T10:03:01;27.40;;;20.43;;
6197;SDS011;3132;42.622;23.328;2022-10-13T10:05:37;26.03;;;19.17;;
6197;SDS011;3132;42.622;23.328;2022-10-13T10:08:13;24.83;;;20.10;;
6197;SDS011;3132;42.622;23.328;2022-10-13T10:10:45;26.23;;;20.07;;
6197;SDS011;3132;42.622;23.328;2022-10-13T10:13:11;26.07;;;20.93;;
6197;SDS011;3132;42.622;23.328;2022-10-13T10:15:42;33.80;;;19.87;;
6197;SDS011;3132;42.622;23.328;2022-10-13T10:18:13;29.80;;;20.20;;
6197;SDS011;3132;42.622;23.328;2022-10-13T10:23:27;22.83;;;18.50;;
6197;SDS011;3132;42.622;23.328;2022-10-13T10:28:46;22.60;;;18.83;;
6197;SDS011;3132;42.622;23.328;2022-10-13T10:34:24;27.87;;;18.57;;
6197;SDS011;3132;42.622;23.328;2022-10-13T10:37:08;22.60;;;16.87;;
6197;SDS011;3132;42.622;23.328;2022-10-13T10:39:47;20.53;;;17.13;;
6197;SDS011;3132;42.622;23.328;2022-10-13T10:44:47;27.80;;;18.03;;
6197;SDS011;3132;42.622;23.328;2022-10-13T10:47:24;24.37;;;17.77;;
6197;SDS011;3132;42.622;23.328;2022-10-13T10:49:54;25.57;;;19.30;;
6197;SDS011;3132;42.622;23.328;2022-10-13T10:52:27;23.83;;;17.63;;
6197;SDS011;3132;42.622;23.328;2022-10-13T10:55:14;21.20;;;18.37;;
6197;SDS011;3132;42.622;23.328;2022-10-13T11:00:32;19.30;;;17.10;;
6197;SDS011;3132;42.622;23.328;2022-10-13T11:03:17;18.53;;;16.53;;
6197;SDS011;3132;42.622;23.328;2022-10-13T11:08:45;19.83;;;17.03;;
6197;SDS011;3132;42.622;23.328;2022-10-13T11:13:51;19.40;;;17.33;;
6197;SDS011;3132;42.622;23.328;2022-10-13T11:19:28;19.33;;;17.20;;
6197;SDS011;3132;42.622;23.328;2022-10-13T11:43:24;22.60;;;16.13;;
6197;SDS011;3132;42.622;23.328;2022-10-13T11:51:15;18.00;;;14.73;;
6197;SDS011;3132;42.622;23.328;2022-10-13T11:56:44;18.83;;;15.20;;
6197;SDS011;3132;42.622;23.328;2022-10-13T11:59:31;17.90;;;14.73;;
6197;SDS011;3132;42.622;23.328;2022-10-13T12:02:10;19.70;;;15.97;;
6197;SDS011;3132;42.622;23.328;2022-10-13T12:04:40;16.70;;;15.00;;
6197;SDS011;3132;42.622;23.328;2022-10-13T12:07:11;17.90;;;16.00;;
6197;SDS011;3132;42.622;23.328;2022-10-13T12:09:45;20.10;;;14.87;;
6197;SDS011;3132;42.622;23.328;2022-10-13T12:12:14;16.73;;;15.03;;
6197;SDS011;3132;42.622;23.328;2022-10-13T12:14:43;18.57;;;14.27;;
6197;SDS011;3132;42.622;23.328;2022-10-13T12:19:52;16.10;;;14.40;;
6197;SDS011;3132;42.622;23.328;2022-10-13T12:22:20;16.50;;;14.77;;
6197;SDS011;3132;42.622;23.328;2022-10-13T12:24:56;16.93;;;14.30;;
6197;SDS011;3132;42.622;23.328;2022-10-13T12:27:26;18.90;;;14.40;;
6197;SDS011;3132;42.622;23.328;2022-10-13T12:29:56;16.80;;;14.33;;
6197;SDS011;3132;42.622;23.328;2022-10-13T12:32:23;16.47;;;14.17;;
6197;SDS011;3132;42.622;23.328;2022-10-13T12:34:50;16.57;;;14.83;;
6197;SDS011;3132;42.622;23.328;2022-10-13T12:39:57;18.90;;;15.27;;
6197;SDS011;3132;42.622;23.328;2022-10-13T12:42:25;17.40;;;15.23;;
6197;SDS011;3132;42.622;23.328;2022-10-13T12:44:55;14.03;;;12.33;;
6197;SDS011;3132;42.622;23.328;2022-10-13T12:50:30;16.27;;;14.57;;
6197;SDS011;3132;42.622;23.328;2022-10-13T12:55:32;16.77;;;13.53;;
6197;SDS011;3132;42.622;23.328;2022-10-13T12:57:59;15.40;;;13.87;;
6197;SDS011;3132;42.622;23.328;2022-10-13T13:00:26;16.93;;;13.83;;
6197;SDS011;3132;42.622;23.328;2022-10-13T13:05:39;15.20;;;13.67;;
6197;SDS011;3132;42.622;23.328;2022-10-13T13:08:23;18.67;;;15.10;;
6197;SDS011;3132;42.622;23.328;2022-10-13T13:10:54;18.27;;;14.53;;
6197;SDS011;3132;42.622;23.328;2022-10-13T13:13:21;15.43;;;13.73;;
6197;SDS011;3132;42.622;23.328;2022-10-13T13:15:47;14.63;;;13.33;;
6197;SDS011;3132;42.622;23.328;2022-10-13T13:20:54;17.70;;;13.90;;
6197;SDS011;3132;42.622;23.328;2022-10-13T13:23:20;14.47;;;13.27;;
6197;SDS011;3132;42.622;23.328;2022-10-13T13:25:58;15.87;;;14.20;;
6197;SDS011;3132;42.622;23.328;2022-10-13T13:28:29;15.73;;;14.07;;
6197;SDS011;3132;42.622;23.328;2022-10-13T13:30:57;17.90;;;14.43;;
6197;SDS011;3132;42.622;23.328;2022-10-13T13:33:24;19.00;;;15.10;;
6197;SDS011;3132;42.622;23.328;2022-10-13T13:35:50;15.70;;;14.10;;
6197;SDS011;3132;42.622;23.328;2022-10-13T13:38:17;15.83;;;14.23;;
6197;SDS011;3132;42.622;23.328;2022-10-13T13:40:42;16.03;;;14.47;;
6197;SDS011;3132;42.622;23.328;2022-10-13T13:43:07;15.90;;;14.20;;
6197;SDS011;3132;42.622;23.328;2022-10-13T13:45:33;17.00;;;13.70;;
6197;SDS011;3132;42.622;23.328;2022-10-13T13:47:59;15.53;;;13.70;;
6197;SDS011;3132;42.622;23.328;2022-10-13T13:50:26;15.67;;;14.07;;
6197;SDS011;3132;42.622;23.328;2022-10-13T13:52:56;15.33;;;13.83;;
6197;SDS011;3132;42.622;23.328;2022-10-13T13:55:21;15.67;;;14.07;;
6197;SDS011;3132;42.622;23.328;2022-10-13T13:57:47;15.37;;;14.07;;
6197;SDS011;3132;42.622;23.328;2022-10-13T14:00:13;16.77;;;13.30;;
6197;SDS011;3132;42.622;23.328;2022-10-13T14:02:40;14.47;;;12.93;;
6197;SDS011;3132;42.622;23.328;2022-10-13T14:05:06;15.60;;;13.90;;
6197;SDS011;3132;42.622;23.328;2022-10-13T14:07:32;17.47;;;13.53;;
6197;SDS011;3132;42.622;23.328;2022-10-13T14:09:57;15.00;;;13.70;;
6197;SDS011;3132;42.622;23.328;2022-10-13T14:12:23;14.53;;;13.23;;
6197;SDS011;3132;42.622;23.328;2022-10-13T14:14:48;15.93;;;14.23;;
6197;SDS011;3132;42.622;23.328;2022-10-13T14:17:14;20.97;;;14.13;;
6197;SDS011;3132;42.622;23.328;2022-10-13T14:19:40;16.43;;;14.63;;
6197;SDS011;3132;42.622;23.328;2022-10-13T14:22:06;17.53;;;15.47;;
6197;SDS011;3132;42.622;23.328;2022-10-13T14:24:32;23.77;;;16.67;;
6197;SDS011;3132;42.622;23.328;2022-10-13T14:26:57;19.70;;;15.37;;
6197;SDS011;3132;42.622;23.328;2022-10-13T14:29:23;14.50;;;13.03;;
6197;SDS011;3132;42.622;23.328;2022-10-13T14:31:48;16.13;;;13.80;;
6197;SDS011;3132;42.622;23.328;2022-10-13T14:34:13;16.13;;;13.87;;
6197;SDS011;3132;42.622;23.328;2022-10-13T14:36:39;14.17;;;12.87;;
6197;SDS011;3132;42.622;23.328;2022-10-13T14:39:04;14.60;;;13.20;;
6197;SDS011;3132;42.622;23.328;2022-10-13T14:41:30;15.17;;;13.70;;
6197;SDS011;3132;42.622;23.328;2022-10-13T14:43:55;17.07;;;15.40;;
6197;SDS011;3132;42.622;23.328;2022-10-13T14:46:21;18.47;;;16.10;;
6197;SDS011;3132;42.622;23.328;2022-10-13T14:48:47;23.93;;;20.40;;
6197;SDS011;3132;42.622;23.328;2022-10-13T14:51:13;20.60;;;18.40;;
6197;SDS011;3132;42.622;23.328;2022-10-13T14:53:39;19.20;;;17.27;;
6197;SDS011;3132;42.622;23.328;2022-10-13T14:56:20;17.90;;;16.17;;
6197;SDS011;3132;42.622;23.328;2022-10-13T14:58:51;16.30;;;14.80;;
6197;SDS011;3132;42.622;23.328;2022-10-13T15:01:18;14.70;;;13.23;;
6197;SDS011;3132;42.622;23.328;2022-10-13T15:03:44;13.23;;;11.97;;
6197;SDS011;3132;42.622;23.328;2022-10-13T15:06:14;14.27;;;13.07;;
6197;SDS011;3132;42.622;23.328;2022-10-13T15:08:42;14.27;;;12.87;;
6197;SDS011;3132;42.622;23.328;2022-10-13T15:11:08;13.00;;;11.83;;
6197;SDS011;3132;42.622;23.328;2022-10-13T15:13:34;12.40;;;11.50;;
6197;SDS011;3132;42.622;23.328;2022-10-13T15:16:00;11.67;;;10.73;;
6197;SDS011;3132;42.622;23.328;2022-10-13T15:18:34;11.33;;;10.20;;
6197;SDS011;3132;42.622;23.328;2022-10-13T15:21:02;10.87;;;9.90;;
6197;SDS011;3132;42.622;23.328;2022-10-13T15:23:28;12.07;;;11.13;;
6197;SDS011;3132;42.622;23.328;2022-10-13T15:25:54;12.77;;;11.77;;
6197;SDS011;3132;42.622;23.328;2022-10-13T15:28:22;11.30;;;10.50;;
6197;SDS011;3132;42.622;23.328;2022-10-13T15:30:49;12.30;;;11.20;;
6197;SDS011;3132;42.622;23.328;2022-10-13T15:33:14;11.80;;;10.93;;
6197;SDS011;3132;42.622;23.328;2022-10-13T15:35:39;10.23;;;9.53;;
6197;SDS011;3132;42.622;23.328;2022-10-13T15:38:05;11.63;;;10.40;;
6197;SDS011;3132;42.622;23.328;2022-10-13T15:40:30;11.83;;;10.73;;
6197;SDS011;3132;42.622;23.328;2022-10-13T15:42:59;12.10;;;11.03;;
6197;SDS011;3132;42.622;23.328;2022-10-13T15:45:25;14.20;;;13.00;;
6197;SDS011;3132;42.622;23.328;2022-10-13T15:47:50;14.50;;;13.30;;
6197;SDS011;3132;42.622;23.328;2022-10-13T15:50:16;17.90;;;14.93;;
6197;SDS011;3132;42.622;23.328;2022-10-13T15:52:42;13.83;;;12.73;;
6197;SDS011;3132;42.622;23.328;2022-10-13T15:55:08;13.83;;;12.70;;
6197;SDS011;3132;42.622;23.328;2022-10-13T15:57:35;14.77;;;13.40;;
6197;SDS011;3132;42.622;23.328;2022-10-13T16:00:00;16.97;;;13.30;;
6197;SDS011;3132;42.622;23.328;2022-10-13T16:02:26;13.33;;;12.20;;
6197;SDS011;3132;42.622;23.328;2022-10-13T16:04:51;14.37;;;13.07;;
6197;SDS011;3132;42.622;23.328;2022-10-13T16:07:17;15.13;;;13.57;;
6197;SDS011;3132;42.622;23.328;2022-10-13T16:09:42;38.67;;;23.53;;
6197;SDS011;3132;42.622;23.328;2022-10-13T16:12:08;22.60;;;17.07;;
6197;SDS011;3132;42.622;23.328;2022-10-13T16:14:34;21.07;;;17.77;;
6197;SDS011;3132;42.622;23.328;2022-10-13T16:16:59;24.97;;;16.37;;
6197;SDS011;3132;42.622;23.328;2022-10-13T16:19:24;19.20;;;16.17;;
6197;SDS011;3132;42.622;23.328;2022-10-13T16:21:50;17.57;;;14.73;;